createdAt,value
2018-12-07T00:00:09.099Z,1007.75
2018-12-07T00:01:09.091Z,1007.74
2018-12-07T00:02:09.065Z,1007.66
2018-12-07T00:03:09.049Z,1007.66
2018-12-07T00:04:09.035Z,1007.62
2018-12-07T00:05:09.032Z,1007.61
2018-12-07T00:06:09.052Z,1007.65
2018-12-07T00:07:09.009Z,1007.66
2018-12-07T00:08:08.995Z,1007.69
2018-12-07T00:09:08.986Z,1007.68
2018-12-07T00:10:08.972Z,1007.66
2018-12-07T00:11:08.958Z,1007.63
2018-12-07T00:12:08.970Z,1007.64
2018-12-07T00:13:08.935Z,1007.62
2018-12-07T00:14:08.928Z,1007.63
2018-12-07T00:15:08.919Z,1007.52
2018-12-07T00:16:08.911Z,1007.53
2018-12-07T00:17:08.903Z,1007.59
2018-12-07T00:18:08.890Z,1007.51
2018-12-07T00:19:08.872Z,1007.49
2018-12-07T00:20:08.871Z,1007.52
2018-12-07T00:21:08.844Z,1007.50
2018-12-07T00:22:08.834Z,1007.51
2018-12-07T00:23:08.862Z,1007.52
2018-12-07T00:24:08.813Z,1007.49
2018-12-07T00:25:08.806Z,1007.52
2018-12-07T00:26:08.794Z,1007.54
2018-12-07T00:27:08.782Z,1007.49
2018-12-07T00:28:08.765Z,1007.49
2018-12-07T00:29:08.770Z,1007.47
2018-12-07T00:30:08.776Z,1007.47
2018-12-07T00:31:08.736Z,1007.37
2018-12-07T00:32:08.726Z,1007.33
2018-12-07T00:33:08.715Z,1007.32
2018-12-07T00:34:08.703Z,1007.32
2018-12-07T00:35:08.693Z,1007.35
2018-12-07T00:36:08.726Z,1007.34
2018-12-07T00:37:08.665Z,1007.33
2018-12-07T00:38:08.657Z,1007.33
2018-12-07T00:39:08.663Z,1007.26
2018-12-07T00:40:08.637Z,1007.25
2018-12-07T00:41:08.620Z,1007.32
2018-12-07T00:42:09.373Z,1007.30
2018-12-07T00:43:08.597Z,1007.32
2018-12-07T00:44:08.590Z,1007.31
2018-12-07T00:45:08.577Z,1007.31
2018-12-07T00:46:08.574Z,1007.35
2018-12-07T00:47:08.572Z,1007.38
2018-12-07T00:48:08.553Z,1007.42
2018-12-07T00:49:08.535Z,1007.35
2018-12-07T00:50:08.540Z,1007.39
2018-12-07T00:51:08.532Z,1007.36
2018-12-07T00:52:08.498Z,1007.33
2018-12-07T00:53:08.487Z,1007.29
2018-12-07T00:54:08.477Z,1007.29
2018-12-07T00:55:08.466Z,1007.25
2018-12-07T00:56:08.467Z,1007.23
2018-12-07T00:57:08.460Z,1007.24
2018-12-07T00:58:08.448Z,1007.20
2018-12-07T00:59:08.421Z,1007.18
2018-12-07T01:00:08.408Z,1007.15
2018-12-07T01:01:08.402Z,1007.13
2018-12-07T01:02:08.394Z,1007.16
2018-12-07T01:03:08.406Z,1007.12
2018-12-07T01:04:08.373Z,1007.14
2018-12-07T01:05:08.355Z,1007.07
2018-12-07T01:06:08.342Z,1007.02
2018-12-07T01:07:08.328Z,1006.97
2018-12-07T01:08:08.322Z,1006.99
2018-12-07T01:09:08.348Z,1006.98
2018-12-07T01:10:08.294Z,1007.01
2018-12-07T01:11:08.284Z,1007.02
2018-12-07T01:12:08.277Z,1006.98
2018-12-07T01:13:08.262Z,1006.90
2018-12-07T01:14:08.248Z,1006.97
2018-12-07T01:15:08.253Z,1006.95
2018-12-07T01:16:08.231Z,1006.98
2018-12-07T01:17:08.220Z,1006.96
2018-12-07T01:18:08.207Z,1006.96
2018-12-07T01:19:08.209Z,1006.96
2018-12-07T01:20:08.195Z,1006.94
2018-12-07T01:21:08.169Z,1006.96
2018-12-07T01:22:08.188Z,1006.92
2018-12-07T01:23:08.153Z,1006.87
2018-12-07T01:24:08.137Z,1006.87
2018-12-07T01:25:08.135Z,1006.84
2018-12-07T01:26:08.130Z,1006.85
2018-12-07T01:27:08.117Z,1006.86
2018-12-07T01:28:08.093Z,1006.87
2018-12-07T01:29:08.087Z,1006.83
2018-12-07T01:30:08.070Z,1006.89
2018-12-07T01:31:08.177Z,1006.90
2018-12-07T01:32:08.047Z,1006.85
2018-12-07T01:33:08.054Z,1006.86
2018-12-07T01:34:08.029Z,1006.82
2018-12-07T01:35:08.019Z,1006.88
2018-12-07T01:36:08.005Z,1006.86
2018-12-07T01:37:07.991Z,1006.88
2018-12-07T01:38:08.011Z,1006.92
2018-12-07T01:39:07.974Z,1006.87
2018-12-07T01:40:07.958Z,1006.87
2018-12-07T01:41:07.950Z,1006.84
2018-12-07T01:42:07.943Z,1006.86
2018-12-07T01:43:07.930Z,1006.87
2018-12-07T01:44:07.957Z,1006.86
2018-12-07T01:45:07.906Z,1006.88
2018-12-07T01:46:07.893Z,1006.87
2018-12-07T01:47:07.884Z,1006.82
2018-12-07T01:48:07.877Z,1006.78
2018-12-07T01:49:07.862Z,1006.76
2018-12-07T01:50:07.858Z,1006.75
2018-12-07T01:51:07.845Z,1006.76
2018-12-07T01:52:07.833Z,1006.74
2018-12-07T01:53:07.817Z,1006.73
2018-12-07T01:54:07.805Z,1006.68
2018-12-07T01:55:07.834Z,1006.70
2018-12-07T01:56:07.797Z,1006.69
2018-12-07T01:57:07.773Z,1006.71
2018-12-07T01:58:07.769Z,1006.73
2018-12-07T01:59:07.746Z,1006.74
2018-12-07T02:00:07.742Z,1006.74
2018-12-07T02:01:07.738Z,1006.71
2018-12-07T02:02:07.721Z,1006.67
2018-12-07T02:03:07.701Z,1006.64
2018-12-07T02:04:07.688Z,1006.58
2018-12-07T02:05:07.684Z,1006.62
2018-12-07T02:06:07.666Z,1006.50
2018-12-07T02:07:07.663Z,1006.48
2018-12-07T02:08:07.656Z,1006.47
2018-12-07T02:09:07.637Z,1006.49
2018-12-07T02:10:07.623Z,1006.44
2018-12-07T02:11:07.616Z,1006.47
2018-12-07T02:12:07.602Z,1006.44
2018-12-07T02:13:07.624Z,1006.45
2018-12-07T02:14:07.575Z,1006.38
2018-12-07T02:15:07.566Z,1006.37
2018-12-07T02:16:07.562Z,1006.31
2018-12-07T02:17:07.549Z,1006.31
2018-12-07T02:18:07.533Z,1006.29
2018-12-07T02:19:07.530Z,1006.27
2018-12-07T02:20:07.510Z,1006.24
2018-12-07T02:21:07.497Z,1006.23
2018-12-07T02:22:07.488Z,1006.26
2018-12-07T02:23:07.484Z,1006.23
2018-12-07T02:24:07.511Z,1006.20
2018-12-07T02:25:07.456Z,1006.21
2018-12-07T02:26:07.447Z,1006.24
2018-12-07T02:27:07.435Z,1006.19
2018-12-07T02:28:07.425Z,1006.17
2018-12-07T02:29:07.410Z,1006.15
2018-12-07T02:30:07.426Z,1006.18
2018-12-07T02:31:07.393Z,1006.11
2018-12-07T02:32:07.379Z,1006.18
2018-12-07T02:33:07.366Z,1006.17
2018-12-07T02:34:07.352Z,1006.16
2018-12-07T02:35:07.345Z,1006.19
2018-12-07T02:36:07.341Z,1006.13
2018-12-07T02:37:07.324Z,1006.14
2018-12-07T02:38:07.314Z,1006.07
2018-12-07T02:39:07.298Z,1006.10
2018-12-07T02:40:07.298Z,1006.07
2018-12-07T02:41:07.288Z,1006.05
2018-12-07T02:42:07.263Z,1006.04
2018-12-07T02:43:07.252Z,1006.01
2018-12-07T02:44:07.244Z,1006.05
2018-12-07T02:45:07.235Z,1006.03
2018-12-07T02:46:07.271Z,1006.06
2018-12-07T02:47:07.211Z,1005.97
2018-12-07T02:48:07.200Z,1005.94
2018-12-07T02:49:07.188Z,1005.95
2018-12-07T02:50:07.180Z,1005.95
2018-12-07T02:51:07.169Z,1005.94
2018-12-07T02:52:07.168Z,1005.90
2018-12-07T02:53:07.153Z,1005.85
2018-12-07T02:54:07.130Z,1005.85
2018-12-07T02:55:07.123Z,1005.89
2018-12-07T02:56:07.105Z,1005.81
2018-12-07T02:57:07.116Z,1005.82
2018-12-07T02:58:07.090Z,1005.76
2018-12-07T02:59:07.089Z,1005.75
2018-12-07T03:00:07.062Z,1005.76
2018-12-07T03:01:07.050Z,1005.74
2018-12-07T03:02:07.078Z,1005.75
2018-12-07T03:03:07.045Z,1005.75
2018-12-07T03:04:07.025Z,1005.72
2018-12-07T03:05:07.007Z,1005.67
2018-12-07T03:06:06.999Z,1005.65
2018-12-07T03:07:06.987Z,1005.67
2018-12-07T03:08:06.990Z,1005.62
2018-12-07T03:09:06.991Z,1005.65
2018-12-07T03:10:06.961Z,1005.65
2018-12-07T03:11:06.938Z,1005.64
2018-12-07T03:12:06.940Z,1005.58
2018-12-07T03:13:06.922Z,1005.61
2018-12-07T03:14:06.912Z,1005.63
2018-12-07T03:15:06.913Z,1005.55
2018-12-07T03:16:06.887Z,1005.53
2018-12-07T03:17:06.871Z,1005.55
2018-12-07T03:18:06.864Z,1005.54
2018-12-07T03:19:06.848Z,1005.49
2018-12-07T03:20:06.853Z,1005.51
2018-12-07T03:21:06.833Z,1005.51
2018-12-07T03:22:06.823Z,1005.51
2018-12-07T03:23:06.809Z,1005.48
2018-12-07T03:24:06.795Z,1005.47
2018-12-07T03:25:06.791Z,1005.48
2018-12-07T03:26:06.776Z,1005.49
2018-12-07T03:27:06.759Z,1005.48
2018-12-07T03:28:06.750Z,1005.43
2018-12-07T03:29:06.741Z,1005.36
2018-12-07T03:30:06.730Z,1005.37
2018-12-07T03:31:06.740Z,1005.37
2018-12-07T03:32:06.704Z,1005.35
2018-12-07T03:33:06.692Z,1005.37
2018-12-07T03:34:06.682Z,1005.35
2018-12-07T03:35:06.674Z,1005.32
2018-12-07T03:36:06.674Z,1005.30
2018-12-07T03:37:06.663Z,1005.27
2018-12-07T03:38:06.641Z,1005.27
2018-12-07T03:39:06.637Z,1005.29
2018-12-07T03:40:06.623Z,1005.22
2018-12-07T03:41:06.645Z,1005.26
2018-12-07T03:42:06.590Z,1005.30
2018-12-07T03:43:06.591Z,1005.38
2018-12-07T03:44:06.572Z,1005.31
2018-12-07T03:45:06.565Z,1005.27
2018-12-07T03:46:06.546Z,1005.31
2018-12-07T03:47:06.586Z,1005.28
2018-12-07T03:48:06.528Z,1005.25
2018-12-07T03:49:06.522Z,1005.22
2018-12-07T03:50:06.511Z,1005.22
2018-12-07T03:51:06.492Z,1005.21
2018-12-07T03:52:06.478Z,1005.22
2018-12-07T03:53:06.490Z,1005.20
2018-12-07T03:54:06.455Z,1005.19
2018-12-07T03:55:06.455Z,1005.19
2018-12-07T03:56:06.443Z,1005.21
2018-12-07T03:57:06.437Z,1005.20
2018-12-07T03:58:06.420Z,1005.15
2018-12-07T03:59:06.408Z,1005.18
2018-12-07T04:00:06.392Z,1005.12
2018-12-07T04:01:06.378Z,1005.14
2018-12-07T04:02:06.371Z,1005.12
2018-12-07T04:03:06.360Z,1005.15
2018-12-07T04:04:06.352Z,1005.13
2018-12-07T04:05:06.331Z,1005.17
2018-12-07T04:06:06.327Z,1005.19
2018-12-07T04:07:06.316Z,1005.13
2018-12-07T04:08:06.307Z,1005.09
2018-12-07T04:09:06.322Z,1005.12
2018-12-07T04:10:06.282Z,1005.03
2018-12-07T04:11:06.266Z,1005.03
2018-12-07T04:12:06.275Z,1005.10
2018-12-07T04:13:06.255Z,1005.07
2018-12-07T04:14:06.243Z,1005.03
2018-12-07T04:15:06.232Z,1005.03
2018-12-07T04:16:06.226Z,1005.01
2018-12-07T04:17:06.204Z,1005.01
2018-12-07T04:18:06.192Z,1005.06
2018-12-07T04:19:06.177Z,1005.01
2018-12-07T04:20:06.190Z,1004.99
2018-12-07T04:21:06.168Z,1004.95
2018-12-07T04:22:06.143Z,1004.95
2018-12-07T04:23:06.131Z,1004.94
2018-12-07T04:24:06.126Z,1004.98
2018-12-07T04:25:06.123Z,1004.96
2018-12-07T04:26:06.134Z,1004.97
2018-12-07T04:27:06.087Z,1004.96
2018-12-07T04:28:06.083Z,1005.03
2018-12-07T04:29:06.072Z,1004.99
2018-12-07T04:30:06.065Z,1004.99
2018-12-07T04:31:06.051Z,1005.01
2018-12-07T04:32:06.069Z,1004.97
2018-12-07T04:33:06.024Z,1005.00
2018-12-07T04:34:06.007Z,1005.01
2018-12-07T04:35:06.005Z,1005.04
2018-12-07T04:36:07.607Z,1004.98
2018-12-07T04:37:05.986Z,1005.01
2018-12-07T04:38:05.980Z,1004.96
2018-12-07T04:39:05.954Z,1004.96
2018-12-07T04:40:05.953Z,1004.96
2018-12-07T04:41:05.947Z,1005.03
2018-12-07T04:42:05.928Z,1005.01
2018-12-07T04:43:05.931Z,1004.95
2018-12-07T04:44:05.896Z,1004.99
2018-12-07T04:45:05.895Z,1004.98
2018-12-07T04:46:05.879Z,1004.97
2018-12-07T04:47:05.864Z,1004.98
2018-12-07T04:48:05.882Z,1004.95
2018-12-07T04:49:05.859Z,1004.96
2018-12-07T04:50:05.835Z,1004.94
2018-12-07T04:51:05.830Z,1004.95
2018-12-07T04:52:05.814Z,1004.91
2018-12-07T04:53:05.810Z,1004.91
2018-12-07T04:54:05.811Z,1004.90
2018-12-07T04:55:05.772Z,1004.89
2018-12-07T04:56:05.774Z,1004.85
2018-12-07T04:57:05.767Z,1004.87
2018-12-07T04:58:05.755Z,1004.85
2018-12-07T04:59:05.769Z,1004.82
2018-12-07T05:00:05.728Z,1004.83
2018-12-07T05:01:05.705Z,1004.84
2018-12-07T05:02:05.701Z,1004.80
2018-12-07T05:03:05.687Z,1004.74
2018-12-07T05:04:05.677Z,1004.79
2018-12-07T05:05:05.679Z,1004.77
2018-12-07T05:06:05.668Z,1004.78
2018-12-07T05:07:05.640Z,1004.78
2018-12-07T05:08:05.639Z,1004.76
2018-12-07T05:09:05.637Z,1004.77
2018-12-07T05:10:05.625Z,1004.75
2018-12-07T05:11:05.600Z,1004.75
2018-12-07T05:12:05.590Z,1004.77
2018-12-07T05:13:05.578Z,1004.74
2018-12-07T05:14:05.568Z,1004.81
2018-12-07T05:15:05.588Z,1004.76
2018-12-07T05:16:05.544Z,1004.77
2018-12-07T05:17:05.539Z,1004.76
2018-12-07T05:18:05.519Z,1004.72
2018-12-07T05:19:05.512Z,1004.71
2018-12-07T05:20:05.504Z,1004.72
2018-12-07T05:21:05.503Z,1004.75
2018-12-07T05:22:05.478Z,1004.74
2018-12-07T05:23:05.471Z,1004.70
2018-12-07T05:24:05.453Z,1004.74
2018-12-07T05:25:05.444Z,1004.74
2018-12-07T05:26:05.465Z,1004.77
2018-12-07T05:27:05.438Z,1004.74
2018-12-07T05:28:05.414Z,1004.76
2018-12-07T05:29:05.404Z,1004.72
2018-12-07T05:30:05.394Z,1004.74
2018-12-07T05:31:05.387Z,1004.76
2018-12-07T05:32:05.409Z,1004.76
2018-12-07T05:33:05.353Z,1004.78
2018-12-07T05:34:05.357Z,1004.76
2018-12-07T05:35:05.334Z,1004.72
2018-12-07T05:36:05.340Z,1004.71
2018-12-07T05:37:05.313Z,1004.70
2018-12-07T05:38:05.321Z,1004.69
2018-12-07T05:39:05.291Z,1004.70
2018-12-07T05:40:05.282Z,1004.64
2018-12-07T05:41:05.265Z,1004.69
2018-12-07T05:42:05.257Z,1004.63
2018-12-07T05:43:05.258Z,1004.64
2018-12-07T05:44:05.228Z,1004.74
2018-12-07T05:45:05.216Z,1004.75
2018-12-07T05:46:05.229Z,1004.73
2018-12-07T05:47:05.200Z,1004.72
2018-12-07T05:48:05.194Z,1004.69
2018-12-07T05:49:05.172Z,1004.69
2018-12-07T05:50:05.169Z,1004.67
2018-12-07T05:51:05.155Z,1004.67
2018-12-07T05:52:05.152Z,1004.65
2018-12-07T05:53:05.133Z,1004.59
2018-12-07T05:54:05.130Z,1004.64
2018-12-07T05:55:05.110Z,1004.60
2018-12-07T05:56:05.101Z,1004.72
2018-12-07T05:57:05.091Z,1004.70
2018-12-07T05:58:05.085Z,1004.64
2018-12-07T05:59:05.070Z,1004.57
2018-12-07T06:00:05.051Z,1004.59
2018-12-07T06:01:05.043Z,1004.59
2018-12-07T06:02:05.043Z,1004.58
2018-12-07T06:03:05.024Z,1004.57
2018-12-07T06:04:05.011Z,1004.64
2018-12-07T06:05:05.004Z,1004.60
2018-12-07T06:06:04.988Z,1004.62
2018-12-07T06:07:04.979Z,1004.62
2018-12-07T06:08:04.965Z,1004.57
2018-12-07T06:09:04.957Z,1004.56
2018-12-07T06:10:04.980Z,1004.52
2018-12-07T06:11:04.936Z,1004.56
2018-12-07T06:12:04.920Z,1004.53
2018-12-07T06:13:04.914Z,1004.52
2018-12-07T06:14:04.898Z,1004.52
2018-12-07T06:15:04.884Z,1004.54
2018-12-07T06:16:04.910Z,1004.48
2018-12-07T06:17:04.865Z,1004.52
2018-12-07T06:18:04.854Z,1004.55
2018-12-07T06:19:04.859Z,1004.59
2018-12-07T06:20:04.832Z,1004.54
2018-12-07T06:21:04.828Z,1004.53
2018-12-07T06:22:04.818Z,1004.53
2018-12-07T06:23:04.811Z,1004.54
2018-12-07T06:24:04.783Z,1004.54
2018-12-07T06:25:04.786Z,1004.50
2018-12-07T06:26:04.760Z,1004.53
2018-12-07T06:27:04.752Z,1004.54
2018-12-07T06:28:04.775Z,1004.52
2018-12-07T06:29:04.736Z,1004.46
2018-12-07T06:30:04.721Z,1004.50
2018-12-07T06:31:04.711Z,1004.38
2018-12-07T06:32:04.706Z,1004.36
2018-12-07T06:33:04.704Z,1004.40
2018-12-07T06:34:04.683Z,1004.38
2018-12-07T06:35:04.663Z,1004.40
2018-12-07T06:36:04.656Z,1004.44
2018-12-07T06:37:04.638Z,1004.46
2018-12-07T06:38:04.635Z,1004.48
2018-12-07T06:39:04.626Z,1004.40
2018-12-07T06:40:04.622Z,1004.42
2018-12-07T06:41:04.599Z,1004.42
2018-12-07T06:42:04.585Z,1004.43
2018-12-07T06:43:04.579Z,1004.43
2018-12-07T06:44:04.599Z,1004.41
2018-12-07T06:45:04.561Z,1004.36
2018-12-07T06:46:04.561Z,1004.34
2018-12-07T06:47:04.534Z,1004.33
2018-12-07T06:48:04.538Z,1004.31
2018-12-07T06:49:04.514Z,1004.34
2018-12-07T06:50:04.526Z,1004.34
2018-12-07T06:51:04.494Z,1004.32
2018-12-07T06:52:04.476Z,1004.30
2018-12-07T06:53:04.469Z,1004.28
2018-12-07T06:54:04.462Z,1004.28
2018-12-07T06:55:04.443Z,1004.29
2018-12-07T06:56:04.456Z,1004.23
2018-12-07T06:57:04.430Z,1004.31
2018-12-07T06:58:04.411Z,1004.27
2018-12-07T06:59:04.410Z,1004.25
2018-12-07T07:00:04.389Z,1004.24
2018-12-07T07:01:04.415Z,1004.24
2018-12-07T07:02:04.368Z,1004.22
2018-12-07T07:03:04.356Z,1004.23
2018-12-07T07:04:04.346Z,1004.20
2018-12-07T07:05:04.330Z,1004.24
2018-12-07T07:06:04.339Z,1004.20
2018-12-07T07:07:05.313Z,1004.20
2018-12-07T07:08:04.316Z,1004.20
2018-12-07T07:09:04.285Z,1004.19
2018-12-07T07:10:04.279Z,1004.20
2018-12-07T07:11:04.272Z,1004.21
2018-12-07T07:12:04.254Z,1004.23
2018-12-07T07:13:04.271Z,1004.22
2018-12-07T07:14:04.231Z,1004.21
2018-12-07T07:15:04.221Z,1004.19
2018-12-07T07:16:04.207Z,1004.24
2018-12-07T07:17:04.215Z,1004.23
2018-12-07T07:18:04.201Z,1004.26
2018-12-07T07:19:04.201Z,1004.25
2018-12-07T07:20:04.167Z,1004.25
2018-12-07T07:21:04.160Z,1004.20
2018-12-07T07:22:04.150Z,1004.28
2018-12-07T07:23:04.132Z,1004.22
2018-12-07T07:24:04.154Z,1004.26
2018-12-07T07:25:04.121Z,1004.27
2018-12-07T07:26:04.098Z,1004.24
2018-12-07T07:27:04.090Z,1004.27
2018-12-07T07:28:04.076Z,1004.24
2018-12-07T07:29:04.071Z,1004.28
2018-12-07T07:30:04.067Z,1004.27
2018-12-07T07:31:04.063Z,1004.24
2018-12-07T07:32:04.065Z,1004.28
2018-12-07T07:33:04.024Z,1004.28
2018-12-07T07:34:04.020Z,1004.23
2018-12-07T07:35:04.015Z,1004.22
2018-12-07T07:36:04.002Z,1004.22
2018-12-07T07:37:04.232Z,1004.24
2018-12-07T07:38:03.972Z,1004.26
2018-12-07T07:39:03.955Z,1004.22
2018-12-07T07:40:04.075Z,1004.20
2018-12-07T07:41:03.943Z,1004.19
2018-12-07T07:42:03.974Z,1004.20
2018-12-07T07:43:03.918Z,1004.24
2018-12-07T07:44:04.903Z,1004.21
2018-12-07T07:45:03.895Z,1004.16
2018-12-07T07:46:03.894Z,1004.19
2018-12-07T07:47:03.873Z,1004.14
2018-12-07T07:48:03.862Z,1004.11
2018-12-07T07:49:03.845Z,1004.12
2018-12-07T07:50:03.839Z,1004.07
2018-12-07T07:51:03.836Z,1004.11
2018-12-07T07:52:03.857Z,1004.03
2018-12-07T07:53:03.806Z,1004.02
2018-12-07T07:54:03.795Z,1004.00
2018-12-07T07:55:03.782Z,1004.01
2018-12-07T07:56:03.771Z,1004.01
2018-12-07T07:57:03.772Z,1004.04
2018-12-07T07:58:03.749Z,1004.01
2018-12-07T07:59:03.744Z,1004.00
2018-12-07T08:00:03.726Z,1003.99
2018-12-07T08:01:03.713Z,1003.97
2018-12-07T08:02:03.738Z,1003.94
2018-12-07T08:03:03.693Z,1003.94
2018-12-07T08:04:03.678Z,1003.93
2018-12-07T08:05:03.669Z,1003.89
2018-12-07T08:06:03.658Z,1003.85
2018-12-07T08:07:03.650Z,1003.87
2018-12-07T08:08:03.656Z,1003.89
2018-12-07T08:09:03.624Z,1003.83
2018-12-07T08:10:03.615Z,1003.81
2018-12-07T08:11:03.607Z,1003.80
2018-12-07T08:12:03.595Z,1003.79
2018-12-07T08:13:03.626Z,1003.74
2018-12-07T08:14:03.567Z,1003.71
2018-12-07T08:15:03.566Z,1003.69
2018-12-07T08:16:03.560Z,1003.63
2018-12-07T08:17:03.539Z,1003.65
2018-12-07T08:18:03.542Z,1003.68
2018-12-07T08:19:03.531Z,1003.63
2018-12-07T08:20:03.525Z,1003.62
2018-12-07T08:21:03.491Z,1003.62
2018-12-07T08:22:03.487Z,1003.61
2018-12-07T08:23:03.483Z,1003.60
2018-12-07T08:24:03.469Z,1003.64
2018-12-07T08:25:03.450Z,1003.57
2018-12-07T08:26:03.439Z,1003.59
2018-12-07T08:27:03.426Z,1003.58
2018-12-07T08:28:03.425Z,1003.59
2018-12-07T08:29:03.415Z,1003.61
2018-12-07T08:30:03.408Z,1003.61
2018-12-07T08:31:03.381Z,1003.63
2018-12-07T08:32:03.375Z,1003.59
2018-12-07T08:33:03.362Z,1003.61
2018-12-07T08:34:03.350Z,1003.64
2018-12-07T08:35:03.350Z,1003.56
2018-12-07T08:36:03.330Z,1003.57
2018-12-07T08:37:03.316Z,1003.59
2018-12-07T08:38:03.306Z,1003.58
2018-12-07T08:39:03.292Z,1003.57
2018-12-07T08:40:03.299Z,1003.58
2018-12-07T08:41:03.272Z,1003.59
2018-12-07T08:42:06.692Z,1003.60
2018-12-07T08:43:03.251Z,1003.57
2018-12-07T08:44:03.247Z,1003.60
2018-12-07T08:45:03.241Z,1003.59
2018-12-07T08:46:03.213Z,1003.57
2018-12-07T08:47:03.206Z,1003.56
2018-12-07T08:48:03.195Z,1003.57
2018-12-07T08:49:03.188Z,1003.53
2018-12-07T08:50:03.192Z,1003.57
2018-12-07T08:51:03.162Z,1003.57
2018-12-07T08:52:03.173Z,1003.51
2018-12-07T08:53:03.145Z,1003.54
2018-12-07T08:54:03.128Z,1003.49
2018-12-07T08:55:03.133Z,1003.46
2018-12-07T08:56:03.101Z,1003.47
2018-12-07T08:57:03.105Z,1003.48
2018-12-07T08:58:03.078Z,1003.48
2018-12-07T08:59:03.067Z,1003.42
2018-12-07T09:00:03.058Z,1003.46
2018-12-07T09:01:03.067Z,1003.46
2018-12-07T09:02:03.039Z,1003.48
2018-12-07T09:03:03.029Z,1003.45
2018-12-07T09:04:03.017Z,1003.43
2018-12-07T09:05:03.007Z,1003.41
2018-12-07T09:06:03.001Z,1003.44
2018-12-07T09:07:03.000Z,1003.40
2018-12-07T09:08:02.974Z,1003.43
2018-12-07T09:09:02.961Z,1003.41
2018-12-07T09:10:02.971Z,1003.41
2018-12-07T09:11:02.936Z,1003.41
2018-12-07T09:12:02.980Z,1003.39
2018-12-07T09:13:02.927Z,1003.36
2018-12-07T09:14:02.905Z,1003.37
2018-12-07T09:15:02.889Z,1003.35
2018-12-07T09:16:02.878Z,1003.35
2018-12-07T09:17:02.869Z,1003.31
2018-12-07T09:18:02.868Z,1003.31
2018-12-07T09:19:02.855Z,1003.28
2018-12-07T09:20:02.845Z,1003.25
2018-12-07T09:21:02.825Z,1003.22
2018-12-07T09:22:02.814Z,1003.21
2018-12-07T09:23:02.867Z,1003.21
2018-12-07T09:24:02.796Z,1003.21
2018-12-07T09:25:02.799Z,1003.17
2018-12-07T09:26:02.775Z,1003.18
2018-12-07T09:27:02.763Z,1003.15
2018-12-07T09:28:02.743Z,1003.13
2018-12-07T09:29:02.753Z,1003.13
2018-12-07T09:30:02.729Z,1003.11
2018-12-07T09:31:02.726Z,1003.12
2018-12-07T09:32:02.707Z,1003.13
2018-12-07T09:33:02.693Z,1003.11
2018-12-07T09:34:02.690Z,1003.13
2018-12-07T09:35:02.670Z,1003.12
2018-12-07T09:36:02.667Z,1003.09
2018-12-07T09:37:02.670Z,1003.08
2018-12-07T09:38:02.632Z,1003.08
2018-12-07T09:39:02.679Z,1003.06
2018-12-07T09:40:02.617Z,1003.03
2018-12-07T09:41:02.597Z,1002.99
2018-12-07T09:42:02.588Z,1002.98
2018-12-07T09:43:02.588Z,1003.02
2018-12-07T09:44:02.568Z,1002.98
2018-12-07T09:45:02.568Z,1002.96
2018-12-07T09:46:02.541Z,1002.99
2018-12-07T09:47:02.537Z,1002.93
2018-12-07T09:48:02.523Z,1002.98
2018-12-07T09:49:02.512Z,1002.89
2018-12-07T09:50:02.524Z,1002.87
2018-12-07T09:51:02.490Z,1002.91
2018-12-07T09:52:02.474Z,1002.87
2018-12-07T09:53:02.467Z,1002.88
2018-12-07T09:54:02.456Z,1002.86
2018-12-07T09:55:02.459Z,1002.84
2018-12-07T09:56:02.428Z,1002.83
2018-12-07T09:57:02.425Z,1002.81
2018-12-07T09:58:02.408Z,1002.79
2018-12-07T09:59:02.408Z,1002.83
2018-12-07T10:00:02.411Z,1002.82
2018-12-07T10:01:02.399Z,1002.82
2018-12-07T10:02:02.369Z,1002.81
2018-12-07T10:03:02.352Z,1002.76
2018-12-07T10:04:02.362Z,1002.77
2018-12-07T10:05:02.334Z,1002.67
2018-12-07T10:06:02.325Z,1002.65
2018-12-07T10:07:02.324Z,1002.58
2018-12-07T10:08:02.298Z,1002.60
2018-12-07T10:09:02.285Z,1002.53
2018-12-07T10:10:02.273Z,1002.49
2018-12-07T10:11:02.279Z,1002.49
2018-12-07T10:12:02.270Z,1002.46
2018-12-07T10:13:07.925Z,1002.46
2018-12-07T10:14:03.245Z,1002.38
2018-12-07T10:15:02.223Z,1002.40
2018-12-07T10:16:02.216Z,1002.37
2018-12-07T10:17:02.199Z,1002.36
2018-12-07T10:18:02.196Z,1002.34
2018-12-07T10:19:02.175Z,1002.33
2018-12-07T10:20:02.162Z,1002.28
2018-12-07T10:21:02.161Z,1002.27
2018-12-07T10:22:02.145Z,1002.23
2018-12-07T10:23:02.134Z,1002.21
2018-12-07T10:24:02.137Z,1002.12
2018-12-07T10:25:02.151Z,1002.14
2018-12-07T10:26:02.098Z,1002.17
2018-12-07T10:27:02.118Z,1002.14
2018-12-07T10:28:02.075Z,1002.11
2018-12-07T10:29:02.062Z,1002.07
2018-12-07T10:30:02.072Z,1002.09
2018-12-07T10:31:02.050Z,1002.05
2018-12-07T10:32:02.035Z,1002.04
2018-12-07T10:33:02.028Z,1002.05
2018-12-07T10:34:02.012Z,1002.04
2018-12-07T10:35:02.010Z,1001.98
2018-12-07T10:36:01.999Z,1001.97
2018-12-07T10:37:01.972Z,1001.98
2018-12-07T10:38:01.959Z,1002.00
2018-12-07T10:39:01.956Z,1001.95
2018-12-07T10:40:01.944Z,1001.90
2018-12-07T10:41:01.949Z,1001.88
2018-12-07T10:42:01.932Z,1001.88
2018-12-07T10:43:01.908Z,1001.93
2018-12-07T10:44:01.897Z,1001.89
2018-12-07T10:45:01.907Z,1001.87
2018-12-07T10:46:01.874Z,1001.86
2018-12-07T10:47:01.872Z,1001.84
2018-12-07T10:48:01.881Z,1001.85
2018-12-07T10:49:01.843Z,1001.84
2018-12-07T10:50:01.832Z,1001.78
2018-12-07T10:51:07.926Z,1001.78
2018-12-07T10:52:02.810Z,1001.73
2018-12-07T10:53:01.791Z,1001.70
2018-12-07T10:54:01.795Z,1001.71
2018-12-07T10:55:01.770Z,1001.72
2018-12-07T10:56:01.761Z,1001.63
2018-12-07T10:57:01.748Z,1001.65
2018-12-07T10:58:01.742Z,1001.64
2018-12-07T10:59:01.769Z,1001.57
2018-12-07T11:00:01.714Z,1001.57
2018-12-07T11:01:01.709Z,1001.58
2018-12-07T11:02:01.698Z,1001.49
2018-12-07T11:03:01.679Z,1001.47
2018-12-07T11:04:01.678Z,1001.38
2018-12-07T11:05:01.728Z,1001.36
2018-12-07T11:06:01.650Z,1001.35
2018-12-07T11:07:01.638Z,1001.37
2018-12-07T11:08:01.635Z,1001.34
2018-12-07T11:09:01.620Z,1001.33
2018-12-07T11:10:01.613Z,1001.28
2018-12-07T11:11:01.603Z,1001.29
2018-12-07T11:12:01.584Z,1001.28
2018-12-07T11:13:01.571Z,1001.32
2018-12-07T11:14:01.561Z,1001.25
2018-12-07T11:15:01.564Z,1001.22
2018-12-07T11:16:01.557Z,1001.23
2018-12-07T11:17:01.525Z,1001.19
2018-12-07T11:18:01.569Z,1001.16
2018-12-07T11:19:01.507Z,1001.18
2018-12-07T11:20:01.496Z,1001.14
2018-12-07T11:21:01.505Z,1001.13
2018-12-07T11:22:01.473Z,1001.13
2018-12-07T11:23:01.457Z,1001.11
2018-12-07T11:24:01.450Z,1001.11
2018-12-07T11:25:01.442Z,1001.10
2018-12-07T11:26:01.455Z,1001.03
2018-12-07T11:27:01.418Z,1001.07
2018-12-07T11:28:01.408Z,1001.03
2018-12-07T11:29:01.398Z,1000.98
2018-12-07T11:30:01.392Z,1001.01
2018-12-07T11:31:01.398Z,1000.94
2018-12-07T11:32:01.385Z,1001.03
2018-12-07T11:33:01.354Z,1000.98
2018-12-07T11:34:01.336Z,1000.95
2018-12-07T11:35:01.331Z,1000.91
2018-12-07T11:36:07.931Z,1000.91
2018-12-07T11:37:02.317Z,1000.91
2018-12-07T11:38:01.307Z,1000.94
2018-12-07T11:39:01.296Z,1000.89
2018-12-07T11:40:01.273Z,1000.86
2018-12-07T11:41:01.265Z,1000.89
2018-12-07T11:42:01.268Z,1000.84
2018-12-07T11:43:01.241Z,1000.86
2018-12-07T11:44:01.244Z,1000.81
2018-12-07T11:45:01.227Z,1000.87
2018-12-07T11:46:01.212Z,1000.73
2018-12-07T11:47:01.206Z,1000.77
2018-12-07T11:48:01.185Z,1000.73
2018-12-07T11:49:01.180Z,1000.73
2018-12-07T11:50:01.166Z,1000.71
2018-12-07T11:51:01.200Z,1000.68
2018-12-07T11:52:01.149Z,1000.66
2018-12-07T11:53:01.129Z,1000.63
2018-12-07T11:54:01.118Z,1000.64
2018-12-07T11:55:01.125Z,1000.64
2018-12-07T11:56:01.098Z,1000.61
2018-12-07T11:57:01.099Z,1000.60
2018-12-07T11:58:01.088Z,1000.59
2018-12-07T11:59:01.058Z,1000.60
2018-12-07T12:00:01.057Z,1000.55
2018-12-07T12:01:01.036Z,1000.57
2018-12-07T12:02:01.030Z,1000.57
2018-12-07T12:03:01.054Z,1000.51
2018-12-07T12:04:01.008Z,1000.51
2018-12-07T12:05:00.991Z,1000.46